Time;durP1;ratioP1;P1;durP2;ratioP2;P2;SDS_P1;SDS_P2;PMS_P1;PMS_P2;Temp;Humidity;BMP_temperature;BMP_pressure;BME280_temperature;BME280_humidity;BME280_pressure;Samples;Min_cycle;Max_cycle;Signal;HPM_P1;HPM_P2
2021/05/24 00:00:38;;;;;;;0.10;0.10;;;12.60;71.00;;;;;;5078172;28;20083;-78
2021/05/24 00:03:04;;;;;;;0.10;0.10;;;12.60;71.10;;;;;;5095212;28;20043;-78
2021/05/24 00:05:33;;;;;;;0.10;0.10;;;12.60;71.10;;;;;;5093861;28;20510;-77
2021/05/24 00:07:59;;;;;;;0.38;0.13;;;12.60;71.10;;;;;;5113432;28;20513;-77
2021/05/24 00:10:29;;;;;;;0.10;0.10;;;12.60;71.00;;;;;;5113531;28;20045;-77
2021/05/24 00:12:58;;;;;;;0.10;0.10;;;12.60;71.00;;;;;;5096029;28;20067;-77
2021/05/24 00:15:26;;;;;;;0.10;0.10;;;12.70;70.80;;;;;;5114834;28;20035;-78
2021/05/24 00:17:53;;;;;;;0.52;0.20;;;12.70;70.70;;;;;;5077671;28;20055;-79
2021/05/24 00:20:24;;;;;;;0.20;0.20;;;12.70;70.60;;;;;;5078306;28;20031;-78
2021/05/24 00:22:51;;;;;;;0.20;0.20;;;12.70;70.50;;;;;;5118596;28;20043;-77
2021/05/24 00:25:18;;;;;;;0.13;0.13;;;12.70;70.50;;;;;;5113368;28;20043;-78
2021/05/24 00:27:44;;;;;;;0.20;0.20;;;12.80;70.50;;;;;;5094491;28;20126;-77
2021/05/24 00:30:11;;;;;;;0.10;0.10;;;12.80;70.40;;;;;;5077272;28;20074;-78
2021/05/24 00:32:37;;;;;;;0.13;0.10;;;12.90;70.40;;;;;;5060787;28;20135;-80
2021/05/24 00:35:04;;;;;;;0.20;0.20;;;12.80;70.20;;;;;;5081109;28;20035;-78
2021/05/24 00:37:29;;;;;;;0.30;0.30;;;12.80;70.20;;;;;;5113797;28;20036;-78
2021/05/24 00:39:55;;;;;;;0.32;0.20;;;12.80;70.20;;;;;;5100045;28;20123;-78
2021/05/24 00:42:21;;;;;;;0.10;0.10;;;12.90;70.20;;;;;;5078813;28;20043;-78
2021/05/24 00:44:47;;;;;;;0.22;0.10;;;12.90;70.20;;;;;;5096470;28;20047;-78
2021/05/24 00:47:13;;;;;;;0.40;0.20;;;12.90;70.10;;;;;;5061353;28;20371;-78
2021/05/24 00:49:38;;;;;;;0.35;0.20;;;12.90;70.00;;;;;;5068083;28;20048;-78
2021/05/24 00:52:05;;;;;;;0.10;0.10;;;13.00;69.80;;;;;;5081985;28;20048;-78
2021/05/24 00:54:31;;;;;;;0.55;0.30;;;13.00;69.70;;;;;;5115899;28;20482;-79
2021/05/24 00:56:58;;;;;;;0.32;0.30;;;13.10;69.70;;;;;;5094115;28;20096;-80
2021/05/24 00:59:24;;;;;;;0.25;0.20;;;13.10;69.60;;;;;;5095333;28;20063;-79
2021/05/24 01:01:51;;;;;;;0.20;0.20;;;13.20;69.40;;;;;;5112239;28;20068;-77
2021/05/24 01:04:19;;;;;;;0.10;0.10;;;13.20;69.30;;;;;;5060349;28;20039;-77
2021/05/24 01:06:45;;;;;;;0.40;0.20;;;13.30;69.20;;;;;;5094209;28;20036;-79
2021/05/24 01:09:11;;;;;;;0.10;0.10;;;13.30;69.10;;;;;;5077191;28;20043;-79
2021/05/24 01:11:37;;;;;;;0.13;0.13;;;13.30;69.00;;;;;;5094333;28;20541;-79
2021/05/24 01:14:03;;;;;;;0.17;0.17;;;13.40;69.10;;;;;;5077462;28;20089;-78
2021/05/24 01:16:30;;;;;;;0.20;0.20;;;13.40;69.10;;;;;;5093822;28;20394;-78
2021/05/24 01:18:57;;;;;;;0.25;0.20;;;13.50;69.10;;;;;;5094263;28;20036;-78
2021/05/24 01:21:24;;;;;;;0.10;0.10;;;13.40;68.90;;;;;;5093934;28;20043;-78
2021/05/24 01:23:50;;;;;;;1.00;0.30;;;13.40;68.90;;;;;;5060267;28;20399;-78
2021/05/24 01:26:17;;;;;;;0.10;0.10;;;13.50;68.90;;;;;;5093481;28;20050;-78
2021/05/24 01:28:43;;;;;;;0.10;0.10;;;13.40;69.00;;;;;;5076322;28;20414;-79
2021/05/24 01:31:10;;;;;;;0.20;0.20;;;13.30;68.90;;;;;;5076369;28;20050;-77
2021/05/24 01:33:36;;;;;;;0.57;0.17;;;13.40;69.00;;;;;;5076544;28;20139;-78
2021/05/24 01:36:08;;;;;;;0.57;0.20;;;13.50;69.00;;;;;;5076514;28;20069;-77
2021/05/24 01:38:37;;;;;;;0.20;0.20;;;13.40;69.00;;;;;;5093638;28;20379;-78
2021/05/24 01:41:05;;;;;;;0.82;0.20;;;13.40;69.00;;;;;;5080108;28;20487;-78
2021/05/24 01:43:31;;;;;;;0.10;0.10;;;13.40;69.10;;;;;;5096762;28;20056;-78
2021/05/24 01:45:57;;;;;;;0.20;0.20;;;13.30;69.10;;;;;;5096898;28;20054;-79
2021/05/24 01:48:24;;;;;;;0.40;0.20;;;13.40;69.20;;;;;;5080003;28;20067;-78
2021/05/24 01:50:51;;;;;;;0.70;0.30;;;13.40;69.30;;;;;;5080176;28;20039;-78
2021/05/24 01:53:17;;;;;;;0.30;0.30;;;13.40;69.30;;;;;;5080014;28;20042;-77
2021/05/24 01:55:42;;;;;;;0.10;0.10;;;13.30;69.30;;;;;;5097114;28;20118;-78
2021/05/24 01:58:09;;;;;;;0.10;0.10;;;13.40;69.40;;;;;;5115394;28;20044;-78
2021/05/24 02:00:35;;;;;;;0.30;0.20;;;13.40;69.40;;;;;;5115351;28;20039;-77
2021/05/24 02:03:01;;;;;;;0.10;0.10;;;13.30;69.50;;;;;;5096607;28;20047;-78
2021/05/24 02:05:28;;;;;;;0.20;0.20;;;13.30;69.50;;;;;;5063403;28;20431;-78
2021/05/24 02:07:59;;;;;;;0.20;0.20;;;13.30;69.60;;;;;;5062893;28;20046;-78
2021/05/24 02:10:26;;;;;;;;;;;13.30;69.50;;;;;;5097148;28;20039;-78
2021/05/24 02:12:52;;;;;;;0.30;0.20;;;13.30;69.50;;;;;;5114528;28;19911;-79
2021/05/24 02:15:21;;;;;;;0.10;0.10;;;13.30;69.60;;;;;;5096806;28;20399;-79
2021/05/24 02:17:47;;;;;;;0.10;0.10;;;13.30;69.60;;;;;;5079815;28;20048;-78
2021/05/24 02:20:18;;;;;;;0.20;0.20;;;13.30;69.70;;;;;;5094715;28;20451;-79
2021/05/24 02:22:44;;;;;;;0.10;0.10;;;13.20;69.70;;;;;;5081168;28;20380;-80
2021/05/24 02:25:11;;;;;;;0.20;0.10;;;13.20;69.80;;;;;;5114513;28;20085;-77
2021/05/24 02:27:37;;;;;;;0.10;0.10;;;13.30;69.90;;;;;;5079393;28;20036;-79
2021/05/24 02:30:05;;;;;;;0.10;0.10;;;13.20;69.90;;;;;;5062673;28;20039;-79
2021/05/24 02:32:31;;;;;;;0.28;0.20;;;13.20;70.00;;;;;;5114874;28;20121;-79
2021/05/24 02:34:57;;;;;;;0.10;0.10;;;13.10;70.00;;;;;;5096952;28;20044;-79
2021/05/24 02:37:23;;;;;;;0.10;0.10;;;13.10;70.10;;;;;;5096213;28;20061;-79
2021/05/24 02:39:49;;;;;;;0.10;0.10;;;13.10;70.30;;;;;;5116323;28;20119;-80
2021/05/24 02:42:15;;;;;;;0.50;0.20;;;13.10;70.40;;;;;;5115940;28;20059;-80
2021/05/24 02:44:41;;;;;;;0.20;0.20;;;13.00;70.50;;;;;;5079317;28;20067;-79
2021/05/24 02:47:07;;;;;;;0.10;0.10;;;13.00;70.70;;;;;;5096373;28;20126;-79
2021/05/24 02:49:32;;;;;;;0.10;0.10;;;12.90;70.80;;;;;;5078775;28;20039;-79
2021/05/24 02:51:58;;;;;;;0.10;0.10;;;12.90;71.00;;;;;;5062079;28;20077;-80
2021/05/24 02:54:24;;;;;;;0.10;0.10;;;12.90;71.10;;;;;;5114222;28;20046;-78
2021/05/24 02:56:50;;;;;;;0.10;0.10;;;12.80;71.20;;;;;;5078847;28;20047;-79
2021/05/24 02:59:15;;;;;;;0.13;0.13;;;12.80;71.30;;;;;;5079768;28;20043;-78
2021/05/24 03:01:41;;;;;;;0.10;0.10;;;12.80;71.40;;;;;;5096832;28;20042;-78
2021/05/24 03:04:08;;;;;;;0.10;0.10;;;12.80;71.50;;;;;;5078802;28;20071;-78
2021/05/24 03:06:34;;;;;;;0.10;0.10;;;12.70;71.60;;;;;;5096248;28;20039;-79
2021/05/24 03:09:00;;;;;;;0.22;0.10;;;12.70;71.60;;;;;;5080336;28;20097;-78
2021/05/24 03:11:26;;;;;;;0.10;0.10;;;12.70;71.60;;;;;;5096453;28;20051;-78
2021/05/24 03:13:51;;;;;;;0.52;0.30;;;12.70;71.60;;;;;;5095366;28;20039;-79
2021/05/24 03:16:18;;;;;;;0.10;0.10;;;12.60;71.50;;;;;;5114270;28;20042;-79
2021/05/24 03:18:44;;;;;;;0.10;0.10;;;12.60;71.70;;;;;;5078743;28;20039;-79
2021/05/24 03:21:09;;;;;;;0.20;0.20;;;12.60;71.70;;;;;;5078905;28;20552;-78
2021/05/24 03:23:35;;;;;;;0.10;0.10;;;12.60;71.80;;;;;;5114028;28;20042;-79
2021/05/24 03:26:01;;;;;;;0.13;0.13;;;12.60;71.90;;;;;;5094912;28;20040;-78
2021/05/24 03:28:27;;;;;;;0.10;0.10;;;12.50;71.90;;;;;;5078412;28;20052;-78
2021/05/24 03:30:53;;;;;;;0.20;0.10;;;12.50;71.90;;;;;;5095519;28;20491;-79
2021/05/24 03:33:18;;;;;;;0.10;0.10;;;12.50;72.00;;;;;;5114097;28;20134;-79
2021/05/24 03:35:44;;;;;;;0.77;0.10;;;12.50;72.00;;;;;;5078351;28;20044;-79
2021/05/24 03:38:10;;;;;;;0.30;0.10;;;12.40;72.00;;;;;;5094699;28;20047;-80
2021/05/24 03:40:36;;;;;;;0.10;0.10;;;12.50;72.10;;;;;;5077987;28;20070;-80
2021/05/24 03:43:02;;;;;;;0.20;0.20;;;12.40;72.10;;;;;;5061676;28;20046;-80
2021/05/24 03:45:30;;;;;;;0.30;0.15;;;12.40;72.10;;;;;;5095173;28;20042;-78
2021/05/24 03:47:56;;;;;;;0.10;0.10;;;12.40;72.20;;;;;;5094983;28;20109;-79
2021/05/24 03:50:23;;;;;;;0.20;0.10;;;12.40;72.20;;;;;;5113940;28;20048;-80
2021/05/24 03:52:49;;;;;;;0.10;0.10;;;12.40;72.30;;;;;;5114618;28;20063;-79
2021/05/24 03:55:17;;;;;;;0.10;0.10;;;12.40;72.40;;;;;;5062155;28;20482;-80
2021/05/24 03:57:44;;;;;;;0.77;0.20;;;12.40;72.30;;;;;;5096190;28;20072;-79
2021/05/24 04:00:11;;;;;;;0.20;0.20;;;12.50;72.40;;;;;;5095397;28;20040;-79
2021/05/24 04:02:37;;;;;;;0.10;0.10;;;12.40;72.40;;;;;;5094897;28;20036;-79
2021/05/24 04:05:12;;;;;;;0.25;0.10;;;12.40;72.40;;;;;;5095313;28;20372;-79
2021/05/24 04:07:38;;;;;;;0.10;0.10;;;12.40;72.40;;;;;;5080800;28;20096;-80
2021/05/24 04:10:04;;;;;;;0.30;0.20;;;12.40;72.50;;;;;;5113360;28;20047;-80
2021/05/24 04:12:30;;;;;;;0.10;0.10;;;12.30;72.40;;;;;;5094820;28;20131;-79
2021/05/24 04:14:56;;;;;;;0.20;0.20;;;12.40;72.50;;;;;;5093627;28;20122;-80
2021/05/24 04:17:23;;;;;;;0.20;0.20;;;12.40;72.50;;;;;;5095225;28;20065;-81
2021/05/24 04:19:50;;;;;;;0.10;0.10;;;12.40;72.50;;;;;;5095025;28;20122;-80
2021/05/24 04:22:16;;;;;;;0.25;0.10;;;12.40;72.60;;;;;;5095044;28;20122;-82
2021/05/24 04:24:42;;;;;;;0.10;0.10;;;12.40;72.70;;;;;;5095013;28;20098;-80
2021/05/24 04:27:07;;;;;;;0.10;0.10;;;12.30;72.60;;;;;;5112953;28;20048;-80
2021/05/24 04:29:33;;;;;;;0.10;0.10;;;12.40;72.70;;;;;;5077731;28;20471;-80
2021/05/24 04:31:59;;;;;;;0.10;0.10;;;12.30;72.80;;;;;;5094828;28;20104;-80
2021/05/24 04:34:25;;;;;;;0.10;0.10;;;12.30;72.80;;;;;;5079235;28;20391;-80
2021/05/24 04:36:51;;;;;;;0.10;0.10;;;12.30;72.80;;;;;;5095981;28;20044;-80
2021/05/24 04:39:17;;;;;;;0.10;0.10;;;12.30;72.90;;;;;;5094352;28;20040;-80
2021/05/24 04:41:42;;;;;;;0.13;0.13;;;12.30;72.90;;;;;;5094690;28;20126;-79
2021/05/24 04:44:12;;;;;;;0.30;0.10;;;12.20;72.90;;;;;;5077220;28;20042;-79
2021/05/24 04:46:38;;;;;;;0.10;0.10;;;12.30;73.00;;;;;;5095095;28;20524;-79
2021/05/24 04:49:04;;;;;;;0.30;0.10;;;12.30;73.10;;;;;;5112452;28;20035;-79
2021/05/24 04:51:30;;;;;;;0.20;0.10;;;12.30;73.10;;;;;;5095015;28;20044;-79
2021/05/24 04:53:56;;;;;;;0.10;0.10;;;12.30;73.10;;;;;;5113389;28;20039;-79
2021/05/24 04:56:22;;;;;;;0.10;0.10;;;12.30;73.10;;;;;;5077265;28;20039;-80
2021/05/24 04:58:48;;;;;;;0.10;0.10;;;12.30;73.20;;;;;;5094194;28;20061;-80
2021/05/24 05:01:14;;;;;;;0.10;0.10;;;12.30;73.20;;;;;;5077316;28;20043;-79
2021/05/24 05:03:39;;;;;;;0.10;0.10;;;12.30;73.20;;;;;;5094059;28;20039;-80
2021/05/24 05:06:05;;;;;;;0.10;0.10;;;12.40;73.30;;;;;;5060292;28;20635;-80
2021/05/24 05:08:31;;;;;;;0.10;0.10;;;12.30;73.30;;;;;;5077126;28;20407;-79
2021/05/24 05:10:56;;;;;;;0.10;0.10;;;12.30;73.30;;;;;;5075483;28;20074;-79
2021/05/24 05:13:22;;;;;;;0.10;0.10;;;12.30;73.30;;;;;;5077122;28;20040;-79
2021/05/24 05:15:48;;;;;;;0.10;0.10;;;12.40;73.30;;;;;;5080724;28;20049;-78
2021/05/24 05:18:13;;;;;;;0.10;0.10;;;12.40;73.30;;;;;;5097505;28;20043;-78
2021/05/24 05:20:39;;;;;;;0.10;0.10;;;12.40;73.30;;;;;;5097632;28;20502;-79
2021/05/24 05:23:05;;;;;;;0.10;0.10;;;12.40;73.30;;;;;;5115617;28;20063;-79
2021/05/24 05:25:30;;;;;;;0.10;0.10;;;12.40;73.20;;;;;;5097635;28;20032;-79
2021/05/24 05:27:56;;;;;;;0.15;0.10;;;12.40;73.20;;;;;;5097370;28;20130;-79
2021/05/24 05:30:22;;;;;;;0.10;0.10;;;12.60;73.30;;;;;;5063541;28;20051;-80
2021/05/24 05:32:47;;;;;;;0.10;0.10;;;12.50;73.20;;;;;;5097225;28;20047;-79
2021/05/24 05:35:15;;;;;;;0.20;0.20;;;12.50;73.20;;;;;;5097131;28;20502;-78
2021/05/24 05:37:42;;;;;;;0.03;0.03;;;12.50;73.20;;;;;;5097371;28;20059;-78
2021/05/24 05:40:14;;;;;;;0.10;0.10;;;12.60;73.20;;;;;;5097451;28;20042;-78
2021/05/24 05:42:40;;;;;;;0.20;0.10;;;12.60;73.20;;;;;;5082043;28;20031;-78
2021/05/24 05:45:06;;;;;;;0.10;0.10;;;12.60;73.20;;;;;;5096661;28;20467;-78
2021/05/24 05:47:32;;;;;;;0.20;0.15;;;12.70;73.20;;;;;;5115866;28;20078;-78
2021/05/24 05:49:58;;;;;;;0.10;0.10;;;12.70;73.20;;;;;;5115540;28;20067;-79
2021/05/24 05:52:23;;;;;;;0.10;0.10;;;12.70;73.10;;;;;;5080029;28;20044;-79
2021/05/24 05:54:49;;;;;;;0.10;0.10;;;12.70;73.20;;;;;;5097101;28;20040;-78
2021/05/24 05:57:15;;;;;;;0.10;0.10;;;12.80;73.20;;;;;;5080207;28;20075;-78
2021/05/24 05:59:41;;;;;;;0.10;0.10;;;12.80;73.20;;;;;;5096707;28;20044;-78
2021/05/24 06:02:07;;;;;;;0.10;0.10;;;12.80;73.20;;;;;;5096765;28;20042;-79
2021/05/24 06:04:33;;;;;;;0.22;0.10;;;12.90;73.20;;;;;;5096681;28;20391;-78
2021/05/24 06:06:58;;;;;;;0.10;0.10;;;12.90;73.00;;;;;;5096681;28;20394;-78
2021/05/24 06:09:24;;;;;;;0.10;0.10;;;13.00;73.00;;;;;;5096286;28;20522;-79
2021/05/24 06:11:52;;;;;;;0.10;0.10;;;13.10;73.00;;;;;;5079920;28;20046;-78
2021/05/24 06:14:22;;;;;;;0.43;0.20;;;13.10;72.90;;;;;;5079741;28;20042;-79
2021/05/24 06:16:48;;;;;;;0.20;0.20;;;13.10;72.80;;;;;;5114649;28;20398;-79
2021/05/24 06:19:14;;;;;;;0.10;0.10;;;13.10;72.80;;;;;;5062813;28;20067;-79
2021/05/24 06:21:40;;;;;;;0.10;0.10;;;13.20;72.80;;;;;;5096253;28;20063;-79
2021/05/24 06:24:06;;;;;;;0.10;0.10;;;13.20;72.70;;;;;;5062615;28;20085;-79
2021/05/24 06:26:32;;;;;;;0.10;0.10;;;13.30;72.70;;;;;;5093512;28;20085;-78
2021/05/24 06:28:58;;;;;;;0.20;0.20;;;13.30;72.80;;;;;;5095608;28;20091;-79
2021/05/24 06:31:24;;;;;;;0.10;0.10;;;13.30;72.70;;;;;;5095044;28;20462;-79
2021/05/24 06:33:49;;;;;;;0.20;0.20;;;13.40;72.70;;;;;;5096182;28;20036;-80
2021/05/24 06:36:15;;;;;;;0.25;0.20;;;13.40;72.80;;;;;;5095467;28;20065;-81
2021/05/24 06:38:41;;;;;;;0.15;0.15;;;13.40;72.70;;;;;;5079281;28;20067;-80
2021/05/24 06:41:06;;;;;;;0.38;0.20;;;13.40;72.80;;;;;;5096301;28;20036;-79
2021/05/24 06:43:32;;;;;;;0.10;0.10;;;13.40;72.80;;;;;;5114447;28;20118;-79
2021/05/24 06:45:58;;;;;;;0.25;0.20;;;13.30;72.80;;;;;;5095245;28;20109;-79
2021/05/24 06:48:24;;;;;;;0.15;0.15;;;13.30;72.80;;;;;;5079337;28;20051;-79
2021/05/24 06:50:49;;;;;;;0.43;0.20;;;13.40;73.00;;;;;;5114309;28;20138;-79
2021/05/24 06:53:15;;;;;;;0.10;0.10;;;13.30;73.00;;;;;;5079135;28;20131;-79
2021/05/24 06:55:41;;;;;;;0.30;0.20;;;13.30;73.00;;;;;;5114131;28;20105;-79
2021/05/24 06:58:07;;;;;;;0.17;0.17;;;13.20;73.70;;;;;;5095928;28;20036;-79
2021/05/24 07:00:32;;;;;;;0.20;0.20;;;13.20;73.30;;;;;;5078822;28;20040;-79
2021/05/24 07:02:58;;;;;;;0.20;0.20;;;13.20;73.40;;;;;;5095758;28;20032;-79
2021/05/24 07:05:24;;;;;;;0.20;0.20;;;13.20;73.40;;;;;;5113974;28;20040;-79
2021/05/24 07:07:50;;;;;;;0.10;0.10;;;13.10;73.40;;;;;;5096033;28;20050;-80
2021/05/24 07:10:15;;;;;;;0.20;0.20;;;13.10;73.60;;;;;;5078726;28;20031;-80
2021/05/24 07:12:41;;;;;;;0.20;0.20;;;13.10;73.70;;;;;;5061952;28;20038;-80
2021/05/24 07:15:07;;;;;;;0.10;0.10;;;13.10;73.70;;;;;;5095647;28;20388;-80
2021/05/24 07:17:33;;;;;;;0.10;0.10;;;13.00;73.80;;;;;;5078507;28;20048;-77
2021/05/24 07:20:00;;;;;;;0.10;0.10;;;13.00;74.00;;;;;;5078711;28;20046;-78
2021/05/24 07:22:26;;;;;;;0.10;0.10;;;13.00;74.00;;;;;;5113692;28;20040;-79
2021/05/24 07:24:53;;;;;;;0.20;0.20;;;12.90;74.10;;;;;;5095624;28;20593;-78
2021/05/24 07:27:19;;;;;;;0.20;0.17;;;12.90;74.20;;;;;;5062193;28;20046;-78
2021/05/24 07:29:45;;;;;;;0.75;0.20;;;13.00;74.40;;;;;;5095344;28;20040;-78
2021/05/24 07:32:11;;;;;;;0.10;0.10;;;12.90;74.40;;;;;;5078377;28;20053;-78
2021/05/24 07:34:38;;;;;;;0.10;0.10;;;12.80;74.50;;;;;;5113561;28;20122;-78
2021/05/24 07:37:04;;;;;;;0.10;0.10;;;12.80;74.60;;;;;;5077382;28;20583;-78
2021/05/24 07:39:31;;;;;;;0.20;0.20;;;12.80;74.70;;;;;;5113925;28;20035;-79
2021/05/24 07:42:00;;;;;;;0.10;0.10;;;12.70;74.80;;;;;;5076309;28;20044;-79
2021/05/24 07:44:27;;;;;;;0.10;0.10;;;12.70;74.80;;;;;;5079173;28;20091;-78
2021/05/24 07:46:53;;;;;;;0.20;0.20;;;12.70;74.90;;;;;;5095247;28;20040;-79
2021/05/24 07:49:20;;;;;;;0.10;0.10;;;12.70;74.90;;;;;;5095539;28;20067;-80
2021/05/24 07:51:47;;;;;;;0.10;0.10;;;12.70;74.90;;;;;;5095102;28;20036;-80
2021/05/24 07:54:12;;;;;;;0.10;0.10;;;12.80;75.00;;;;;;5061359;28;20039;-79
2021/05/24 07:56:38;;;;;;;0.10;0.10;;;12.80;75.00;;;;;;5078093;28;20040;-78
2021/05/24 07:59:04;;;;;;;0.10;0.10;;;12.80;74.90;;;;;;5113194;28;20031;-79
2021/05/24 08:01:30;;;;;;;0.20;0.20;;;12.80;74.90;;;;;;5112914;28;20114;-79
2021/05/24 08:03:56;;;;;;;0.40;0.20;;;12.90;75.00;;;;;;5092618;28;20132;-79
2021/05/24 08:06:22;;;;;;;0.10;0.10;;;12.90;74.90;;;;;;5060998;28;20051;-79
2021/05/24 08:08:47;;;;;;;0.20;0.20;;;12.90;74.90;;;;;;5094623;28;20085;-79
2021/05/24 08:11:15;;;;;;;0.10;0.10;;;12.90;74.90;;;;;;5061218;28;20039;-79
2021/05/24 08:13:41;;;;;;;0.13;0.13;;;12.90;75.00;;;;;;5078386;28;20044;-80
2021/05/24 08:16:07;;;;;;;0.10;0.10;;;12.90;75.20;;;;;;5095704;28;20126;-78
2021/05/24 08:18:33;;;;;;;0.20;0.20;;;12.80;75.20;;;;;;5095600;28;20433;-76
2021/05/24 08:20:59;;;;;;;0.10;0.10;;;12.70;75.30;;;;;;5114001;28;20088;-78
2021/05/24 08:23:24;;;;;;;0.30;0.20;;;12.70;75.30;;;;;;5095737;28;20040;-79
2021/05/24 08:25:51;;;;;;;0.20;0.20;;;12.70;75.40;;;;;;5096565;28;20051;-77
2021/05/24 08:28:17;;;;;;;0.20;0.20;;;12.70;75.50;;;;;;5081905;28;20098;-78
2021/05/24 08:30:43;;;;;;;0.28;0.20;;;12.70;75.50;;;;;;5118466;28;20058;-77
2021/05/24 08:33:09;;;;;;;0.13;0.13;;;12.70;75.50;;;;;;5103338;28;20047;-76
2021/05/24 08:35:35;;;;;;;0.20;0.20;;;12.70;75.50;;;;;;5095381;28;20039;-75
2021/05/24 08:38:00;;;;;;;0.10;0.10;;;12.80;75.50;;;;;;5078103;28;20040;-77
2021/05/24 08:40:27;;;;;;;0.10;0.10;;;12.80;75.40;;;;;;5094763;28;20036;-77
2021/05/24 08:42:56;;;;;;;0.75;0.30;;;12.80;75.40;;;;;;5112945;28;20427;-78
2021/05/24 08:45:22;;;;;;;0.35;0.28;;;12.80;75.40;;;;;;5094477;28;20055;-76
2021/05/24 08:47:49;;;;;;;0.70;0.20;;;12.80;75.40;;;;;;5077930;28;20039;-77
2021/05/24 08:50:15;;;;;;;0.47;0.20;;;12.80;75.50;;;;;;5116663;28;20043;-77
2021/05/24 08:52:41;;;;;;;0.22;0.22;;;12.80;75.60;;;;;;5086101;28;20032;-79
2021/05/24 08:55:09;;;;;;;0.30;0.30;;;12.80;75.70;;;;;;5083378;28;20047;-79
2021/05/24 08:57:39;;;;;;;0.65;0.40;;;12.80;75.60;;;;;;5121992;28;20084;-78
2021/05/24 09:00:07;;;;;;;0.30;0.22;;;12.80;75.60;;;;;;5103910;28;20061;-78
2021/05/24 09:02:36;;;;;;;0.10;0.10;;;12.90;75.70;;;;;;5101803;28;20039;-82
2021/05/24 09:05:05;;;;;;;0.30;0.30;;;12.70;75.70;;;;;;5099028;28;20040;-80
2021/05/24 09:07:47;;;;;;;0.20;0.20;;;12.80;75.90;;;;;;5081366;28;20035;-78
2021/05/24 09:10:13;;;;;;;1.02;0.40;;;12.70;75.90;;;;;;5065424;28;20096;-79
2021/05/24 09:12:39;;;;;;;0.30;0.20;;;12.70;76.00;;;;;;5098879;28;20096;-79
2021/05/24 09:15:10;;;;;;;0.52;0.32;;;12.60;76.20;;;;;;5081241;28;20044;-79
2021/05/24 09:17:46;;;;;;;0.30;0.30;;;12.60;76.40;;;;;;5099409;28;20092;-78
2021/05/24 09:20:30;;;;;;;0.30;0.30;;;12.50;76.50;;;;;;5117752;28;20069;-77
2021/05/24 09:23:14;;;;;;;0.30;0.20;;;12.50;76.70;;;;;;5117279;28;20089;-78
2021/05/24 09:25:54;;;;;;;0.35;0.30;;;12.50;76.70;;;;;;5116702;28;20112;-77
2021/05/24 09:28:38;;;;;;;0.20;0.20;;;12.50;76.70;;;;;;5098540;28;20046;-77
2021/05/24 09:31:11;;;;;;;0.22;0.22;;;12.60;76.60;;;;;;5098124;28;20443;-77
2021/05/24 09:33:38;;;;;;;0.10;0.10;;;12.60;76.40;;;;;;5097742;28;20040;-76
2021/05/24 09:36:05;;;;;;;0.13;0.13;;;12.60;76.30;;;;;;5099498;28;20127;-77
2021/05/24 09:38:40;;;;;;;0.20;0.20;;;12.70;76.30;;;;;;5097227;28;20088;-78
2021/05/24 09:41:07;;;;;;;0.20;0.20;;;12.80;76.40;;;;;;5098633;28;20040;-76
2021/05/24 09:43:35;;;;;;;0.20;0.20;;;12.80;76.20;;;;;;5097068;28;20415;-77
2021/05/24 09:46:13;;;;;;;0.20;0.20;;;12.90;76.10;;;;;;5096875;28;20102;-77
2021/05/24 09:48:40;;;;;;;0.30;0.30;;;13.00;76.10;;;;;;5080818;28;20036;-75
2021/05/24 09:51:09;;;;;;;0.30;0.30;;;13.00;76.00;;;;;;5115720;28;20051;-76
2021/05/24 09:53:35;;;;;;;0.20;0.20;;;13.00;76.00;;;;;;5063625;28;20089;-74
2021/05/24 09:56:06;;;;;;;0.30;0.30;;;13.00;75.90;;;;;;5097343;28;20039;-76
2021/05/24 09:58:32;;;;;;;0.20;0.20;;;13.00;75.90;;;;;;5080457;28;20036;-76
2021/05/24 10:01:13;;;;;;;0.85;0.22;;;13.00;76.00;;;;;;5062646;28;20047;-74
2021/05/24 10:03:40;;;;;;;0.20;0.20;;;12.90;76.10;;;;;;5096865;28;20047;-76
2021/05/24 10:06:06;;;;;;;0.20;0.20;;;12.80;76.30;;;;;;5080440;28;20297;-75
2021/05/24 10:08:32;;;;;;;1.10;0.40;;;12.80;76.50;;;;;;5114855;28;20506;-77
2021/05/24 10:11:00;;;;;;;0.32;0.30;;;12.80;76.70;;;;;;5114974;28;20035;-78
2021/05/24 10:13:28;;;;;;;1.17;0.25;;;12.70;77.30;;;;;;5080102;28;20043;-76
2021/05/24 10:15:59;;;;;;;0.43;0.30;;;12.70;76.80;;;;;;5079940;28;20506;-76
2021/05/24 10:18:27;;;;;;;0.25;0.20;;;12.80;76.90;;;;;;5081529;28;20039;-77
2021/05/24 10:20:52;;;;;;;0.20;0.20;;;12.80;76.70;;;;;;5096649;28;20491;-76
2021/05/24 10:23:20;;;;;;;0.43;0.30;;;12.80;76.70;;;;;;5096330;28;20051;-76
2021/05/24 10:25:46;;;;;;;0.20;0.20;;;12.80;76.70;;;;;;5079820;28;20409;-76
2021/05/24 10:28:12;;;;;;;0.20;0.20;;;12.90;76.70;;;;;;5096822;28;20394;-76
2021/05/24 10:30:38;;;;;;;0.57;0.25;;;13.00;76.50;;;;;;5096765;28;20035;-78
2021/05/24 10:33:10;;;;;;;0.40;0.40;;;13.20;76.30;;;;;;5095169;28;20040;-77
2021/05/24 10:35:38;;;;;;;0.43;0.32;;;13.30;76.20;;;;;;5063425;28;20122;-77
2021/05/24 10:38:22;;;;;;;0.45;0.28;;;13.40;75.80;;;;;;5079522;28;20044;-77
2021/05/24 10:40:48;;;;;;;0.75;0.40;;;13.50;75.70;;;;;;5096239;28;20451;-76
2021/05/24 10:43:17;;;;;;;0.40;0.28;;;13.60;75.60;;;;;;5114840;28;20116;-76
2021/05/24 10:45:43;;;;;;;0.20;0.20;;;13.80;75.20;;;;;;5080387;28;20046;-77
2021/05/24 10:48:16;;;;;;;0.20;0.20;;;13.80;75.20;;;;;;5079159;28;20066;-77
2021/05/24 10:50:43;;;;;;;0.30;0.30;;;13.80;75.20;;;;;;5114094;28;20048;-76
2021/05/24 10:53:26;;;;;;;0.20;0.20;;;13.80;75.30;;;;;;5114242;28;20056;-77
2021/05/24 10:55:53;;;;;;;0.32;0.20;;;13.90;75.50;;;;;;5078956;28;20054;-76
2021/05/24 10:58:20;;;;;;;0.73;0.22;;;13.80;75.50;;;;;;5079208;28;20035;-76
2021/05/24 11:01:06;;;;;;;0.85;0.22;;;13.70;75.70;;;;;;5093900;28;20111;-76
2021/05/24 11:03:32;;;;;;;0.63;0.30;;;13.80;75.90;;;;;;5095622;28;20495;-75
2021/05/24 11:06:11;;;;;;;0.55;0.40;;;13.60;76.10;;;;;;5113855;28;20039;-76
2021/05/24 11:08:39;;;;;;;0.20;0.20;;;13.50;76.50;;;;;;5095796;28;20044;-76
2021/05/24 11:11:37;;;;;;;0.30;0.30;;;13.50;76.80;;;;;;5114412;28;20099;-76
2021/05/24 11:14:07;;;;;;;0.32;0.30;;;13.40;77.10;;;;;;5114530;28;20047;-75
2021/05/24 11:16:35;;;;;;;0.20;0.20;;;13.40;77.30;;;;;;5095257;28;20127;-75
2021/05/24 11:19:17;;;;;;;0.20;0.20;;;13.40;77.40;;;;;;5113511;28;20074;-75
2021/05/24 11:21:53;;;;;;;0.85;0.32;;;13.50;77.40;;;;;;5095979;28;20592;-75
2021/05/24 11:27:14;;;;;;;0.17;0.17;;;13.50;77.20;;;;;;5097055;28;20483;-75
2021/05/24 11:29:43;;;;;;;0.10;0.10;;;13.50;77.20;;;;;;5095662;28;20483;-75
2021/05/24 11:32:21;;;;;;;0.25;0.25;;;13.60;77.00;;;;;;5095496;28;20123;-74
2021/05/24 11:34:47;;;;;;;0.25;0.20;;;13.70;77.00;;;;;;5113600;28;20042;-75
2021/05/24 11:37:13;;;;;;;0.20;0.20;;;13.80;76.90;;;;;;5113364;28;20051;-75
2021/05/24 11:39:48;;;;;;;0.20;0.20;;;13.80;76.70;;;;;;5061669;28;20061;-75
2021/05/24 11:42:26;;;;;;;0.20;0.20;;;13.80;76.70;;;;;;5095177;28;20451;-75
2021/05/24 11:44:53;;;;;;;0.10;0.10;;;13.80;76.80;;;;;;5095310;28;20065;-75
2021/05/24 11:47:24;;;;;;;0.30;0.20;;;13.90;76.90;;;;;;5095066;28;20048;-75
2021/05/24 11:49:53;;;;;;;0.10;0.10;;;14.00;76.70;;;;;;5113545;28;20043;-75
2021/05/24 11:52:22;;;;;;;0.25;0.20;;;14.20;77.20;;;;;;5095251;28;20035;-76
2021/05/24 11:54:49;;;;;;;0.20;0.20;;;14.30;76.20;;;;;;5094960;28;20440;-75
2021/05/24 11:57:18;;;;;;;0.28;0.28;;;14.30;76.00;;;;;;5113127;28;20044;-78
2021/05/24 11:59:44;;;;;;;0.13;0.13;;;14.40;76.10;;;;;;5113355;28;20049;-79
2021/05/24 12:02:10;;;;;;;0.20;0.20;;;14.40;76.10;;;;;;5095339;28;20035;-79
2021/05/24 12:04:39;;;;;;;0.30;0.20;;;14.50;76.20;;;;;;5094941;28;20032;-77
2021/05/24 12:07:08;;;;;;;0.20;0.20;;;14.50;76.00;;;;;;5077756;28;20062;-79
2021/05/24 12:09:39;;;;;;;0.20;0.20;;;14.50;76.00;;;;;;5094637;28;20070;-78
2021/05/24 12:12:08;;;;;;;0.20;0.20;;;14.50;75.90;;;;;;5094614;28;20491;-76
2021/05/24 12:14:35;;;;;;;0.10;0.10;;;14.50;75.80;;;;;;5061418;28;20042;-77
2021/05/24 12:17:08;;;;;;;0.30;0.20;;;14.50;76.00;;;;;;5094618;28;20048;-78
2021/05/24 12:19:34;;;;;;;0.10;0.10;;;14.40;76.20;;;;;;5122516;28;20044;-75
2021/05/24 12:22:06;;;;;;;0.17;0.17;;;14.30;76.10;;;;;;5083325;28;20507;-76
2021/05/24 12:24:36;;;;;;;0.20;0.20;;;14.50;76.10;;;;;;5086127;28;20039;-76
2021/05/24 12:27:02;;;;;;;0.20;0.20;;;14.40;76.00;;;;;;5107571;28;20090;-75
2021/05/24 12:29:30;;;;;;;0.10;0.10;;;14.60;75.90;;;;;;5094615;28;20507;-76
2021/05/24 12:31:59;;;;;;;0.20;0.20;;;14.60;75.70;;;;;;5078332;28;20051;-76
2021/05/24 12:34:35;;;;;;;0.10;0.10;;;14.70;75.60;;;;;;5061179;28;20036;-76
2021/05/24 12:37:03;;;;;;;0.15;0.15;;;14.80;75.40;;;;;;5078632;28;20036;-77
2021/05/24 12:39:32;;;;;;;0.20;0.10;;;14.90;75.20;;;;;;5094602;28;20092;-76
2021/05/24 12:42:00;;;;;;;0.10;0.10;;;15.00;75.00;;;;;;5078219;28;20035;-78
2021/05/24 12:44:26;;;;;;;0.20;0.20;;;14.90;75.10;;;;;;5112570;28;20055;-78
2021/05/24 12:46:56;;;;;;;0.20;0.20;;;14.80;75.20;;;;;;5101672;28;20054;-76
2021/05/24 12:49:36;;;;;;;0.10;0.10;;;14.90;75.30;;;;;;5078283;28;20502;-75
2021/05/24 12:52:04;;;;;;;0.20;0.20;;;14.90;75.30;;;;;;5095084;28;20120;-78